METAR Data
IDs: Format: Raw Decoded Include TAF

Data at: 2336 UTC 25 Oct 2021

KGPM 252250Z 08006KT 10SM SKC 30/16 A2991
KGPM 252150Z 07008KT 10SM SKC 30/16 A2991
KGPM 252050Z 09006KT 10SM SKC 30/16 A2992
KGPM 251950Z 07003KT 10SM SKC 29/16 A2994
KGPM 251850Z 09008KT 10SM SKC 28/16 A2996
KGPM 251750Z 09008KT 10SM SKC 27/14 A2998
KGPM 251650Z 05006KT 10SM SKC 26/10 A3000
KGPM 251550Z 06006KT 10SM SKC 25/09 A3001
KGPM 251450Z 05006KT 10SM SKC 22/11 A3002
KGPM 251350Z 00000KT 10SM SKC 21/12 A3001
KGPM 251250Z 00000KT 10SM SKC 18/13 A2998
KGPM 251150Z 00000KT 10SM SKC 18/13 A2996
KGPM 251130Z AUTO 03004KT 10SM CLR 18/13 A2995 RMK AO2 T01800133
KGPM 251115Z AUTO 04003KT 10SM CLR 18/14 A2995 RMK AO2 T01770135
KGPM 251055Z AUTO 00000KT 10SM CLR 18/13 A2996 RMK AO2 T01780133
KGPM 251030Z AUTO 00000KT 10SM CLR 18/13 A2995 RMK AO2 T01800132
KGPM 251020Z AUTO 00000KT 10SM CLR 18/13 A2995 RMK AO2 T01830133
KGPM 250955Z AUTO 03003KT 10SM CLR 19/13 A2994 RMK AO2 T01870132
KGPM 250935Z AUTO 02003KT 10SM CLR 19/13 A2994 RMK AO2 T01900134
KGPM 250915Z AUTO 02003KT 10SM CLR 19/14 A2994 RMK AO2 T01900135
KGPM 250855Z AUTO 03004KT 10SM CLR 20/14 A2994 RMK AO2 T01950136
KGPM 250840Z AUTO 02004KT 10SM CLR 20/14 A2993 RMK AO2 T01960136
KGPM 250815Z AUTO 03005KT 10SM CLR 20/14 A2993 RMK AO2 T02010137
KGPM 250755Z AUTO 03005KT 10SM CLR 21/14 A2993 RMK AO2 T02050141
KGPM 250735Z AUTO 02005KT 10SM CLR 21/14 A2993 RMK AO2 T02070141
KGPM 250715Z AUTO 02005KT 10SM CLR 21/14 A2992 RMK AO2 T02140140
KGPM 250655Z AUTO 02005KT 10SM CLR 21/14 A2992 RMK AO2 T02130140
KGPM 250635Z AUTO 01006KT 10SM CLR 22/14 A2992 RMK AO2 T02210137
KGPM 250615Z AUTO 01007KT 10SM CLR 22/14 A2992 RMK AO2 T02230138
KGPM 250555Z AUTO 36008KT 10SM CLR 22/14 A2992 RMK AO2 T02220135 10271 20222 402930198
KGPM 250535Z AUTO 36007KT 10SM CLR 24/13 A2992 RMK AO2 T02350132
KGPM 250515Z AUTO 34004KT 10SM SCT048 25/14 A2992 RMK AO2 T02460141
KGPM 250500Z AUTO 34005KT 10SM SCT048 24/18 A2991 RMK AO2 T02440175
KGPM 250435Z AUTO 00000KT 10SM CLR 24/19 A2991 RMK AO2 T02430186
KGPM 250415Z AUTO 00000KT 10SM SCT049 25/19 A2990 RMK AO2 T02450186
KGPM 250355Z AUTO 00000KT 10SM BKN049 24/19 A2990 RMK AO2 T02440185
KGPM 250335Z AUTO 00000KT 10SM SCT044 SCT049 SCT065 26/19 A2988 RMK AO2 T02570186
KGPM 250315Z AUTO 22003KT 10SM SCT042 26/19 A2988 RMK AO2 T02610185
KGPM 250300Z AUTO 26003KT 10SM SCT044 SCT085 26/19 A2988 RMK AO2 T02610186
KGPM 250235Z AUTO 26006KT 10SM SCT070 26/19 A2986 RMK AO2 T02590185
KGPM 250215Z AUTO 30005KT 10SM SCT070 26/19 A2985 RMK AO2 T02550185
KGPM 250050Z 17009KT 10SM SKC 26/19 A2980
KGPM 242350Z 17009KT 10SM SKC 27/19 A2979
KGPM 242250Z 17009KT 10SM SKC 28/18 A2978
KGPM 242150Z 16010KT 10SM SKC 29/18 A2979
KGPM 242050Z 16012G18KT 10SM SKC 29/18 A2978
KGPM 241950Z 19012G20KT 10SM SCT043 28/18 A2979
KGPM 241850Z 18012G22KT 10SM BKN030 28/18 A2980
KGPM 241750Z 17012G20KT 10SM BKN024 BKN030 26/19 A2983
KGPM 241650Z 18012G22KT 10SM BKN020 OVC027 25/19 A2985
KGPM 241550Z 16010G16KT 10SM BKN014 23/19 A2986
KGPM 241450Z 16007G15KT 10SM OVC010 22/19 A2987
KGPM 241350Z 14008KT 10SM OVC010 21/21 A2987
KGPM 241250Z 14008KT 10SM OVC008 20/20 A2985
KGPM 241151Z 14008KT 10SM OVC012 20/18 A2985
KGPM 241150Z 14008KT 10SM OVC012 20/18 A2985